XS82 weather

Del Rio Heliport
San Antonio, Texas, United States

Public forecast

Using degrees Fahrenheit for public forecast. Weather courtesy of forecast.io.

Closest aviation weather report (METAR) to Del Rio Heliport

Closest report is Stinson Municipal Airport, 5.2 nm (9.6 km) S. Retrieved 2020/08/08 21:53 UTC (58 minutes ago):

KSSF 082153Z 13005KT 10SM CLR 36/17 A2998 RMK AO2 SLP139 T03560167

Closest aviation forecast (TAF) to Del Rio Heliport

Closest forecast is Stinson Municipal Airport, 5.2 nm (9.6 km) S. Retrieved 2020/08/08 18:33 UTC (4 hours ago):

TAF KSSF 081730Z 0818/0918 16008G15KT P6SM SCT025 BKN100 FM090600 15007KT P6SM FEW008 SCT015 FM090900 14004KT P6SM BKN015 FM091600 17012G22KT P6SM SCT050